sensor_id;sensor_type;location;lat;lon;timestamp;P1;durP1;ratioP1;P2;durP2;ratioP2
20393;SDS011;10356;50.544;9.642;2024-01-15T00:01:29;42.43;;;17.47;;
20393;SDS011;10356;50.544;9.642;2024-01-15T00:03:55;49.57;;;19.97;;
20393;SDS011;10356;50.544;9.642;2024-01-15T00:06:22;42.17;;;17.23;;
20393;SDS011;10356;50.544;9.642;2024-01-15T00:08:48;38.53;;;16.60;;
20393;SDS011;10356;50.544;9.642;2024-01-15T00:11:15;47.40;;;18.33;;
20393;SDS011;10356;50.544;9.642;2024-01-15T00:13:40;48.33;;;19.00;;
20393;SDS011;10356;50.544;9.642;2024-01-15T00:16:08;39.60;;;17.60;;
20393;SDS011;10356;50.544;9.642;2024-01-15T00:18:35;46.33;;;19.10;;
20393;SDS011;10356;50.544;9.642;2024-01-15T00:21:01;50.77;;;19.07;;
20393;SDS011;10356;50.544;9.642;2024-01-15T00:23:28;48.97;;;19.07;;
20393;SDS011;10356;50.544;9.642;2024-01-15T00:25:55;45.60;;;18.23;;
20393;SDS011;10356;50.544;9.642;2024-01-15T00:28:21;45.60;;;18.10;;
20393;SDS011;10356;50.544;9.642;2024-01-15T00:30:48;42.73;;;17.57;;
20393;SDS011;10356;50.544;9.642;2024-01-15T00:33:15;42.17;;;18.27;;
20393;SDS011;10356;50.544;9.642;2024-01-15T00:35:42;46.97;;;17.80;;
20393;SDS011;10356;50.544;9.642;2024-01-15T00:38:08;46.10;;;18.70;;
20393;SDS011;10356;50.544;9.642;2024-01-15T00:40:35;43.93;;;17.93;;
20393;SDS011;10356;50.544;9.642;2024-01-15T00:43:02;42.70;;;17.93;;
20393;SDS011;10356;50.544;9.642;2024-01-15T00:45:29;48.20;;;17.53;;
20393;SDS011;10356;50.544;9.642;2024-01-15T00:47:56;44.30;;;18.40;;
20393;SDS011;10356;50.544;9.642;2024-01-15T00:50:25;44.43;;;18.90;;
20393;SDS011;10356;50.544;9.642;2024-01-15T00:52:52;43.53;;;18.50;;
20393;SDS011;10356;50.544;9.642;2024-01-15T00:55:18;38.13;;;17.00;;
20393;SDS011;10356;50.544;9.642;2024-01-15T00:57:45;40.97;;;16.50;;
20393;SDS011;10356;50.544;9.642;2024-01-15T01:00:12;38.93;;;16.03;;
20393;SDS011;10356;50.544;9.642;2024-01-15T01:02:39;34.57;;;16.50;;
20393;SDS011;10356;50.544;9.642;2024-01-15T01:05:05;36.93;;;16.43;;
20393;SDS011;10356;50.544;9.642;2024-01-15T01:07:34;38.23;;;16.80;;
20393;SDS011;10356;50.544;9.642;2024-01-15T01:10:00;34.47;;;15.27;;
20393;SDS011;10356;50.544;9.642;2024-01-15T01:12:27;41.10;;;16.57;;
20393;SDS011;10356;50.544;9.642;2024-01-15T01:14:54;38.13;;;16.60;;
20393;SDS011;10356;50.544;9.642;2024-01-15T01:17:21;43.87;;;19.83;;
20393;SDS011;10356;50.544;9.642;2024-01-15T01:19:47;47.83;;;22.50;;
20393;SDS011;10356;50.544;9.642;2024-01-15T01:22:15;53.63;;;28.80;;
20393;SDS011;10356;50.544;9.642;2024-01-15T01:24:43;42.63;;;19.17;;
20393;SDS011;10356;50.544;9.642;2024-01-15T01:27:09;52.83;;;23.63;;
20393;SDS011;10356;50.544;9.642;2024-01-15T01:29:36;90.17;;;39.23;;
20393;SDS011;10356;50.544;9.642;2024-01-15T01:32:02;91.90;;;41.13;;
20393;SDS011;10356;50.544;9.642;2024-01-15T01:34:29;84.00;;;34.50;;
20393;SDS011;10356;50.544;9.642;2024-01-15T01:36:56;46.03;;;19.17;;
20393;SDS011;10356;50.544;9.642;2024-01-15T01:39:22;39.10;;;17.97;;
20393;SDS011;10356;50.544;9.642;2024-01-15T01:41:50;44.37;;;20.67;;
20393;SDS011;10356;50.544;9.642;2024-01-15T01:44:16;40.90;;;16.17;;
20393;SDS011;10356;50.544;9.642;2024-01-15T01:46:43;40.27;;;17.23;;
20393;SDS011;10356;50.544;9.642;2024-01-15T01:49:09;37.30;;;16.20;;
20393;SDS011;10356;50.544;9.642;2024-01-15T01:51:36;37.33;;;16.50;;
20393;SDS011;10356;50.544;9.642;2024-01-15T01:54:04;41.07;;;16.27;;
20393;SDS011;10356;50.544;9.642;2024-01-15T01:56:32;36.97;;;15.60;;
20393;SDS011;10356;50.544;9.642;2024-01-15T01:59:01;40.53;;;17.00;;
20393;SDS011;10356;50.544;9.642;2024-01-15T02:01:28;37.73;;;15.57;;
20393;SDS011;10356;50.544;9.642;2024-01-15T02:03:54;35.70;;;15.40;;
20393;SDS011;10356;50.544;9.642;2024-01-15T02:06:22;31.17;;;15.00;;
20393;SDS011;10356;50.544;9.642;2024-01-15T02:08:49;32.97;;;15.37;;
20393;SDS011;10356;50.544;9.642;2024-01-15T02:11:16;38.23;;;16.13;;
20393;SDS011;10356;50.544;9.642;2024-01-15T02:13:42;33.60;;;15.53;;
20393;SDS011;10356;50.544;9.642;2024-01-15T02:16:10;35.47;;;15.03;;
20393;SDS011;10356;50.544;9.642;2024-01-15T02:18:40;30.60;;;14.03;;
20393;SDS011;10356;50.544;9.642;2024-01-15T02:21:07;33.70;;;15.57;;
20393;SDS011;10356;50.544;9.642;2024-01-15T02:23:35;29.67;;;14.80;;
20393;SDS011;10356;50.544;9.642;2024-01-15T02:26:02;33.20;;;14.47;;
20393;SDS011;10356;50.544;9.642;2024-01-15T02:28:28;32.97;;;14.23;;
20393;SDS011;10356;50.544;9.642;2024-01-15T02:30:55;37.77;;;15.47;;
20393;SDS011;10356;50.544;9.642;2024-01-15T02:33:22;35.70;;;14.60;;
20393;SDS011;10356;50.544;9.642;2024-01-15T02:35:48;33.63;;;14.57;;
20393;SDS011;10356;50.544;9.642;2024-01-15T02:38:15;31.97;;;14.63;;
20393;SDS011;10356;50.544;9.642;2024-01-15T02:40:43;32.97;;;14.77;;
20393;SDS011;10356;50.544;9.642;2024-01-15T02:43:11;34.83;;;15.17;;
20393;SDS011;10356;50.544;9.642;2024-01-15T02:45:38;37.97;;;16.60;;
20393;SDS011;10356;50.544;9.642;2024-01-15T02:48:05;33.47;;;15.20;;
20393;SDS011;10356;50.544;9.642;2024-01-15T02:50:32;35.67;;;15.90;;
20393;SDS011;10356;50.544;9.642;2024-01-15T02:52:58;35.37;;;15.47;;
20393;SDS011;10356;50.544;9.642;2024-01-15T02:55:25;35.93;;;16.07;;
20393;SDS011;10356;50.544;9.642;2024-01-15T02:57:55;35.93;;;15.90;;
20393;SDS011;10356;50.544;9.642;2024-01-15T03:00:22;35.20;;;15.40;;
20393;SDS011;10356;50.544;9.642;2024-01-15T03:02:49;39.30;;;16.37;;
20393;SDS011;10356;50.544;9.642;2024-01-15T03:05:16;35.47;;;15.73;;
20393;SDS011;10356;50.544;9.642;2024-01-15T03:07:43;41.30;;;16.23;;
20393;SDS011;10356;50.544;9.642;2024-01-15T03:10:09;41.03;;;17.03;;
20393;SDS011;10356;50.544;9.642;2024-01-15T03:12:36;35.37;;;15.77;;
20393;SDS011;10356;50.544;9.642;2024-01-15T03:15:04;35.00;;;15.60;;
20393;SDS011;10356;50.544;9.642;2024-01-15T03:17:31;33.57;;;15.20;;
20393;SDS011;10356;50.544;9.642;2024-01-15T03:19:58;35.73;;;15.00;;
20393;SDS011;10356;50.544;9.642;2024-01-15T03:22:24;33.43;;;15.13;;
20393;SDS011;10356;50.544;9.642;2024-01-15T03:24:52;32.90;;;14.20;;
20393;SDS011;10356;50.544;9.642;2024-01-15T03:27:18;29.33;;;13.77;;
20393;SDS011;10356;50.544;9.642;2024-01-15T03:29:45;29.80;;;13.53;;
20393;SDS011;10356;50.544;9.642;2024-01-15T03:32:13;33.57;;;14.00;;
20393;SDS011;10356;50.544;9.642;2024-01-15T03:34:41;33.83;;;13.93;;
20393;SDS011;10356;50.544;9.642;2024-01-15T03:37:07;30.73;;;13.33;;
20393;SDS011;10356;50.544;9.642;2024-01-15T03:39:34;32.60;;;14.27;;
20393;SDS011;10356;50.544;9.642;2024-01-15T03:42:00;32.93;;;13.50;;
20393;SDS011;10356;50.544;9.642;2024-01-15T03:44:27;29.57;;;14.03;;
20393;SDS011;10356;50.544;9.642;2024-01-15T03:46:53;32.93;;;13.23;;
20393;SDS011;10356;50.544;9.642;2024-01-15T03:49:21;30.53;;;14.20;;
20393;SDS011;10356;50.544;9.642;2024-01-15T03:51:47;31.50;;;13.27;;
20393;SDS011;10356;50.544;9.642;2024-01-15T03:54:14;29.33;;;14.20;;
20393;SDS011;10356;50.544;9.642;2024-01-15T03:56:40;27.10;;;12.43;;
20393;SDS011;10356;50.544;9.642;2024-01-15T03:59:07;29.40;;;12.97;;
20393;SDS011;10356;50.544;9.642;2024-01-15T04:01:33;31.17;;;13.17;;
20393;SDS011;10356;50.544;9.642;2024-01-15T04:04:00;30.40;;;13.47;;
20393;SDS011;10356;50.544;9.642;2024-01-15T04:06:27;30.47;;;13.83;;
20393;SDS011;10356;50.544;9.642;2024-01-15T04:08:54;30.43;;;13.73;;
20393;SDS011;10356;50.544;9.642;2024-01-15T04:11:20;30.10;;;13.70;;
20393;SDS011;10356;50.544;9.642;2024-01-15T04:13:47;33.97;;;13.97;;
20393;SDS011;10356;50.544;9.642;2024-01-15T04:16:14;28.33;;;13.63;;
20393;SDS011;10356;50.544;9.642;2024-01-15T04:18:40;31.47;;;13.70;;
20393;SDS011;10356;50.544;9.642;2024-01-15T04:21:07;32.20;;;14.30;;
20393;SDS011;10356;50.544;9.642;2024-01-15T04:23:34;32.30;;;14.47;;
20393;SDS011;10356;50.544;9.642;2024-01-15T04:26:01;31.33;;;14.20;;
20393;SDS011;10356;50.544;9.642;2024-01-15T04:28:27;31.03;;;13.70;;
20393;SDS011;10356;50.544;9.642;2024-01-15T04:30:54;31.77;;;14.33;;
20393;SDS011;10356;50.544;9.642;2024-01-15T04:33:20;31.67;;;14.00;;
20393;SDS011;10356;50.544;9.642;2024-01-15T04:35:47;31.20;;;13.77;;
20393;SDS011;10356;50.544;9.642;2024-01-15T04:38:13;32.07;;;13.70;;
20393;SDS011;10356;50.544;9.642;2024-01-15T04:40:41;28.90;;;13.67;;
20393;SDS011;10356;50.544;9.642;2024-01-15T04:43:07;27.77;;;12.47;;
20393;SDS011;10356;50.544;9.642;2024-01-15T04:45:34;29.77;;;13.07;;
20393;SDS011;10356;50.544;9.642;2024-01-15T04:48:01;32.87;;;12.97;;
20393;SDS011;10356;50.544;9.642;2024-01-15T04:50:28;26.60;;;12.03;;
20393;SDS011;10356;50.544;9.642;2024-01-15T04:52:54;24.47;;;11.87;;
20393;SDS011;10356;50.544;9.642;2024-01-15T04:55:21;25.27;;;11.47;;
20393;SDS011;10356;50.544;9.642;2024-01-15T04:57:49;23.27;;;11.57;;
20393;SDS011;10356;50.544;9.642;2024-01-15T05:00:15;23.07;;;11.10;;
20393;SDS011;10356;50.544;9.642;2024-01-15T05:02:42;24.00;;;11.07;;
20393;SDS011;10356;50.544;9.642;2024-01-15T05:05:08;21.40;;;10.03;;
20393;SDS011;10356;50.544;9.642;2024-01-15T05:07:35;21.90;;;10.43;;
20393;SDS011;10356;50.544;9.642;2024-01-15T05:10:01;20.97;;;10.60;;
20393;SDS011;10356;50.544;9.642;2024-01-15T05:12:28;25.13;;;10.97;;
20393;SDS011;10356;50.544;9.642;2024-01-15T05:14:56;22.83;;;10.67;;
20393;SDS011;10356;50.544;9.642;2024-01-15T05:17:23;27.43;;;11.57;;
20393;SDS011;10356;50.544;9.642;2024-01-15T05:19:49;21.57;;;10.37;;
20393;SDS011;10356;50.544;9.642;2024-01-15T05:22:15;22.87;;;10.57;;
20393;SDS011;10356;50.544;9.642;2024-01-15T05:24:42;24.80;;;10.97;;
20393;SDS011;10356;50.544;9.642;2024-01-15T05:27:08;23.17;;;11.17;;
20393;SDS011;10356;50.544;9.642;2024-01-15T05:29:35;26.40;;;11.97;;
20393;SDS011;10356;50.544;9.642;2024-01-15T05:32:03;22.33;;;10.40;;
20393;SDS011;10356;50.544;9.642;2024-01-15T05:34:29;22.60;;;10.73;;
20393;SDS011;10356;50.544;9.642;2024-01-15T05:36:56;22.47;;;11.17;;
20393;SDS011;10356;50.544;9.642;2024-01-15T05:39:22;24.77;;;10.90;;
20393;SDS011;10356;50.544;9.642;2024-01-15T05:41:49;23.40;;;10.93;;
20393;SDS011;10356;50.544;9.642;2024-01-15T05:44:15;21.00;;;10.43;;
20393;SDS011;10356;50.544;9.642;2024-01-15T05:46:42;26.73;;;11.13;;
20393;SDS011;10356;50.544;9.642;2024-01-15T05:49:09;22.77;;;10.70;;
20393;SDS011;10356;50.544;9.642;2024-01-15T05:51:36;24.43;;;11.53;;
20393;SDS011;10356;50.544;9.642;2024-01-15T05:54:02;26.53;;;11.43;;
20393;SDS011;10356;50.544;9.642;2024-01-15T05:56:29;24.27;;;11.30;;
20393;SDS011;10356;50.544;9.642;2024-01-15T05:58:56;23.60;;;11.20;;
20393;SDS011;10356;50.544;9.642;2024-01-15T06:01:22;25.40;;;11.03;;
20393;SDS011;10356;50.544;9.642;2024-01-15T06:03:49;27.57;;;11.17;;
20393;SDS011;10356;50.544;9.642;2024-01-15T06:06:16;25.57;;;10.73;;
20393;SDS011;10356;50.544;9.642;2024-01-15T06:08:43;22.27;;;10.37;;
20393;SDS011;10356;50.544;9.642;2024-01-15T06:11:09;26.20;;;12.07;;
20393;SDS011;10356;50.544;9.642;2024-01-15T06:13:36;26.53;;;12.40;;
20393;SDS011;10356;50.544;9.642;2024-01-15T06:16:02;23.13;;;10.90;;
20393;SDS011;10356;50.544;9.642;2024-01-15T06:18:37;26.63;;;12.10;;
20393;SDS011;10356;50.544;9.642;2024-01-15T06:21:04;26.13;;;11.70;;
20393;SDS011;10356;50.544;9.642;2024-01-15T06:23:32;30.23;;;13.20;;
20393;SDS011;10356;50.544;9.642;2024-01-15T06:25:58;28.40;;;13.00;;
20393;SDS011;10356;50.544;9.642;2024-01-15T06:28:25;26.80;;;12.73;;
20393;SDS011;10356;50.544;9.642;2024-01-15T06:30:51;30.73;;;13.27;;
20393;SDS011;10356;50.544;9.642;2024-01-15T06:33:18;26.63;;;12.53;;
20393;SDS011;10356;50.544;9.642;2024-01-15T06:35:44;31.07;;;13.90;;
20393;SDS011;10356;50.544;9.642;2024-01-15T06:38:11;29.67;;;14.43;;
20393;SDS011;10356;50.544;9.642;2024-01-15T06:40:39;35.43;;;13.97;;
20393;SDS011;10356;50.544;9.642;2024-01-15T06:43:10;33.80;;;14.33;;
20393;SDS011;10356;50.544;9.642;2024-01-15T06:45:36;29.73;;;14.30;;
20393;SDS011;10356;50.544;9.642;2024-01-15T06:48:03;29.50;;;12.70;;
20393;SDS011;10356;50.544;9.642;2024-01-15T06:50:30;31.87;;;13.80;;
20393;SDS011;10356;50.544;9.642;2024-01-15T06:52:57;30.30;;;13.90;;
20393;SDS011;10356;50.544;9.642;2024-01-15T06:55:23;29.83;;;14.00;;
20393;SDS011;10356;50.544;9.642;2024-01-15T06:57:51;30.30;;;13.77;;
20393;SDS011;10356;50.544;9.642;2024-01-15T07:00:18;32.93;;;14.50;;
20393;SDS011;10356;50.544;9.642;2024-01-15T07:02:45;34.03;;;14.33;;
20393;SDS011;10356;50.544;9.642;2024-01-15T07:05:11;32.07;;;14.27;;
20393;SDS011;10356;50.544;9.642;2024-01-15T07:07:38;31.43;;;14.13;;
20393;SDS011;10356;50.544;9.642;2024-01-15T07:10:05;34.27;;;13.53;;
20393;SDS011;10356;50.544;9.642;2024-01-15T07:12:32;32.57;;;14.57;;
20393;SDS011;10356;50.544;9.642;2024-01-15T07:15:00;30.63;;;14.03;;
20393;SDS011;10356;50.544;9.642;2024-01-15T07:17:27;38.10;;;15.47;;
20393;SDS011;10356;50.544;9.642;2024-01-15T07:19:54;33.47;;;14.87;;
20393;SDS011;10356;50.544;9.642;2024-01-15T07:22:21;34.67;;;14.77;;
20393;SDS011;10356;50.544;9.642;2024-01-15T07:24:47;30.10;;;14.13;;
20393;SDS011;10356;50.544;9.642;2024-01-15T07:27:13;34.23;;;14.90;;
20393;SDS011;10356;50.544;9.642;2024-01-15T07:29:41;32.47;;;14.77;;
20393;SDS011;10356;50.544;9.642;2024-01-15T07:32:09;27.17;;;13.33;;
20393;SDS011;10356;50.544;9.642;2024-01-15T07:34:36;28.67;;;13.40;;
20393;SDS011;10356;50.544;9.642;2024-01-15T07:37:03;31.33;;;14.07;;
20393;SDS011;10356;50.544;9.642;2024-01-15T07:39:29;36.10;;;15.33;;
20393;SDS011;10356;50.544;9.642;2024-01-15T07:41:56;29.50;;;14.20;;
20393;SDS011;10356;50.544;9.642;2024-01-15T07:44:22;30.20;;;13.10;;
20393;SDS011;10356;50.544;9.642;2024-01-15T07:46:49;34.70;;;15.17;;
20393;SDS011;10356;50.544;9.642;2024-01-15T07:49:17;31.13;;;14.57;;
20393;SDS011;10356;50.544;9.642;2024-01-15T07:51:44;36.93;;;14.97;;
20393;SDS011;10356;50.544;9.642;2024-01-15T07:54:10;27.23;;;13.83;;
20393;SDS011;10356;50.544;9.642;2024-01-15T07:59:22;30.27;;;14.30;;
20393;SDS011;10356;50.544;9.642;2024-01-15T08:01:49;34.07;;;14.37;;
20393;SDS011;10356;50.544;9.642;2024-01-15T08:04:17;29.80;;;13.50;;
20393;SDS011;10356;50.544;9.642;2024-01-15T08:06:43;30.23;;;14.30;;
20393;SDS011;10356;50.544;9.642;2024-01-15T08:09:10;34.20;;;14.83;;
20393;SDS011;10356;50.544;9.642;2024-01-15T08:11:39;28.53;;;14.03;;
20393;SDS011;10356;50.544;9.642;2024-01-15T08:14:06;31.93;;;13.30;;
20393;SDS011;10356;50.544;9.642;2024-01-15T08:16:32;31.43;;;14.53;;
20393;SDS011;10356;50.544;9.642;2024-01-15T08:18:59;37.33;;;16.87;;
20393;SDS011;10356;50.544;9.642;2024-01-15T08:21:27;30.63;;;14.13;;
20393;SDS011;10356;50.544;9.642;2024-01-15T08:23:55;37.03;;;15.33;;
20393;SDS011;10356;50.544;9.642;2024-01-15T08:26:21;38.80;;;15.40;;
20393;SDS011;10356;50.544;9.642;2024-01-15T08:28:48;30.77;;;14.50;;
20393;SDS011;10356;50.544;9.642;2024-01-15T08:31:15;35.53;;;14.67;;
20393;SDS011;10356;50.544;9.642;2024-01-15T08:33:42;35.03;;;14.13;;
20393;SDS011;10356;50.544;9.642;2024-01-15T08:36:09;34.37;;;15.57;;
20393;SDS011;10356;50.544;9.642;2024-01-15T08:38:37;30.27;;;12.80;;
20393;SDS011;10356;50.544;9.642;2024-01-15T08:41:03;33.50;;;13.63;;
20393;SDS011;10356;50.544;9.642;2024-01-15T08:43:30;30.93;;;13.97;;
20393;SDS011;10356;50.544;9.642;2024-01-15T08:45:57;33.03;;;14.87;;
20393;SDS011;10356;50.544;9.642;2024-01-15T08:48:24;30.30;;;13.63;;
20393;SDS011;10356;50.544;9.642;2024-01-15T08:50:52;29.27;;;13.20;;
20393;SDS011;10356;50.544;9.642;2024-01-15T08:53:19;30.53;;;13.87;;
20393;SDS011;10356;50.544;9.642;2024-01-15T08:55:47;30.23;;;13.70;;
20393;SDS011;10356;50.544;9.642;2024-01-15T08:58:14;31.17;;;14.90;;
20393;SDS011;10356;50.544;9.642;2024-01-15T09:00:41;37.03;;;14.87;;
20393;SDS011;10356;50.544;9.642;2024-01-15T09:03:08;36.70;;;14.27;;
20393;SDS011;10356;50.544;9.642;2024-01-15T09:05:34;33.53;;;14.50;;
20393;SDS011;10356;50.544;9.642;2024-01-15T09:08:01;38.47;;;15.30;;
20393;SDS011;10356;50.544;9.642;2024-01-15T09:10:27;30.77;;;14.57;;
20393;SDS011;10356;50.544;9.642;2024-01-15T09:12:55;31.80;;;14.97;;
20393;SDS011;10356;50.544;9.642;2024-01-15T09:15:22;29.33;;;14.33;;
20393;SDS011;10356;50.544;9.642;2024-01-15T09:17:49;28.90;;;12.90;;
20393;SDS011;10356;50.544;9.642;2024-01-15T09:20:15;31.47;;;13.77;;
20393;SDS011;10356;50.544;9.642;2024-01-15T09:22:42;27.63;;;13.80;;
20393;SDS011;10356;50.544;9.642;2024-01-15T09:25:09;35.17;;;15.17;;
20393;SDS011;10356;50.544;9.642;2024-01-15T09:27:36;28.40;;;12.73;;
20393;SDS011;10356;50.544;9.642;2024-01-15T09:30:04;28.97;;;14.00;;
20393;SDS011;10356;50.544;9.642;2024-01-15T09:32:32;28.23;;;12.80;;
20393;SDS011;10356;50.544;9.642;2024-01-15T09:34:58;29.63;;;14.27;;
20393;SDS011;10356;50.544;9.642;2024-01-15T09:37:25;26.67;;;13.03;;
20393;SDS011;10356;50.544;9.642;2024-01-15T09:39:51;30.70;;;13.17;;
20393;SDS011;10356;50.544;9.642;2024-01-15T09:42:19;27.17;;;13.43;;
20393;SDS011;10356;50.544;9.642;2024-01-15T09:44:46;31.40;;;14.10;;
20393;SDS011;10356;50.544;9.642;2024-01-15T09:47:14;32.07;;;13.90;;
20393;SDS011;10356;50.544;9.642;2024-01-15T09:49:42;28.23;;;13.53;;
20393;SDS011;10356;50.544;9.642;2024-01-15T09:52:08;30.37;;;13.33;;
20393;SDS011;10356;50.544;9.642;2024-01-15T09:54:37;29.87;;;14.00;;
20393;SDS011;10356;50.544;9.642;2024-01-15T09:57:03;25.30;;;12.47;;
20393;SDS011;10356;50.544;9.642;2024-01-15T09:59:31;28.03;;;13.03;;
20393;SDS011;10356;50.544;9.642;2024-01-15T10:02:00;29.23;;;13.60;;
20393;SDS011;10356;50.544;9.642;2024-01-15T10:04:30;30.83;;;13.40;;
20393;SDS011;10356;50.544;9.642;2024-01-15T10:06:56;33.17;;;14.17;;
20393;SDS011;10356;50.544;9.642;2024-01-15T10:09:26;25.73;;;13.20;;
20393;SDS011;10356;50.544;9.642;2024-01-15T10:11:54;29.37;;;14.17;;
20393;SDS011;10356;50.544;9.642;2024-01-15T10:14:20;33.13;;;13.97;;
20393;SDS011;10356;50.544;9.642;2024-01-15T10:16:47;35.90;;;14.13;;
20393;SDS011;10356;50.544;9.642;2024-01-15T10:19:13;30.03;;;13.27;;
20393;SDS011;10356;50.544;9.642;2024-01-15T10:21:41;27.33;;;12.40;;
20393;SDS011;10356;50.544;9.642;2024-01-15T10:24:07;34.47;;;14.87;;
20393;SDS011;10356;50.544;9.642;2024-01-15T10:26:34;31.33;;;14.77;;
20393;SDS011;10356;50.544;9.642;2024-01-15T10:29:00;31.40;;;13.90;;
20393;SDS011;10356;50.544;9.642;2024-01-15T10:31:27;29.30;;;14.47;;
20393;SDS011;10356;50.544;9.642;2024-01-15T10:33:54;30.53;;;13.43;;
20393;SDS011;10356;50.544;9.642;2024-01-15T10:36:22;29.43;;;14.27;;
20393;SDS011;10356;50.544;9.642;2024-01-15T10:38:50;32.30;;;14.67;;
20393;SDS011;10356;50.544;9.642;2024-01-15T10:41:16;29.13;;;14.30;;
20393;SDS011;10356;50.544;9.642;2024-01-15T10:43:43;30.27;;;13.30;;
20393;SDS011;10356;50.544;9.642;2024-01-15T10:46:10;31.73;;;14.60;;
20393;SDS011;10356;50.544;9.642;2024-01-15T10:48:37;29.17;;;14.63;;
20393;SDS011;10356;50.544;9.642;2024-01-15T10:51:04;31.30;;;15.00;;
20393;SDS011;10356;50.544;9.642;2024-01-15T10:53:36;30.93;;;14.90;;
20393;SDS011;10356;50.544;9.642;2024-01-15T10:56:06;28.27;;;14.23;;
20393;SDS011;10356;50.544;9.642;2024-01-15T10:58:33;35.23;;;15.50;;
20393;SDS011;10356;50.544;9.642;2024-01-15T11:01:00;32.00;;;14.83;;
20393;SDS011;10356;50.544;9.642;2024-01-15T11:03:27;31.83;;;16.17;;
20393;SDS011;10356;50.544;9.642;2024-01-15T11:05:54;32.13;;;15.20;;
20393;SDS011;10356;50.544;9.642;2024-01-15T11:08:21;31.20;;;16.27;;
20393;SDS011;10356;50.544;9.642;2024-01-15T11:10:48;34.80;;;15.57;;
20393;SDS011;10356;50.544;9.642;2024-01-15T11:13:20;41.23;;;19.07;;
20393;SDS011;10356;50.544;9.642;2024-01-15T11:15:54;34.37;;;16.57;;
20393;SDS011;10356;50.544;9.642;2024-01-15T11:18:21;31.03;;;14.97;;
20393;SDS011;10356;50.544;9.642;2024-01-15T11:23:50;29.00;;;13.80;;
20393;SDS011;10356;50.544;9.642;2024-01-15T11:31:58;24.67;;;12.47;;
20393;SDS011;10356;50.544;9.642;2024-01-15T11:37:19;28.33;;;13.43;;
20393;SDS011;10356;50.544;9.642;2024-01-15T11:39:46;27.40;;;13.63;;
20393;SDS011;10356;50.544;9.642;2024-01-15T11:42:13;26.07;;;12.80;;
20393;SDS011;10356;50.544;9.642;2024-01-15T11:44:42;25.77;;;12.40;;
20393;SDS011;10356;50.544;9.642;2024-01-15T11:47:10;23.20;;;12.23;;
20393;SDS011;10356;50.544;9.642;2024-01-15T11:52:29;29.10;;;13.27;;
20393;SDS011;10356;50.544;9.642;2024-01-15T11:55:00;30.60;;;14.50;;
20393;SDS011;10356;50.544;9.642;2024-01-15T11:57:33;23.97;;;12.17;;
20393;SDS011;10356;50.544;9.642;2024-01-15T12:00:07;27.27;;;14.23;;
20393;SDS011;10356;50.544;9.642;2024-01-15T12:02:37;29.03;;;13.50;;
20393;SDS011;10356;50.544;9.642;2024-01-15T12:05:04;27.07;;;14.20;;
20393;SDS011;10356;50.544;9.642;2024-01-15T12:07:32;27.63;;;13.13;;
20393;SDS011;10356;50.544;9.642;2024-01-15T12:09:59;27.10;;;13.00;;
20393;SDS011;10356;50.544;9.642;2024-01-15T12:12:27;28.23;;;12.50;;
20393;SDS011;10356;50.544;9.642;2024-01-15T12:15:02;23.80;;;12.50;;
20393;SDS011;10356;50.544;9.642;2024-01-15T12:17:31;25.97;;;12.87;;
20393;SDS011;10356;50.544;9.642;2024-01-15T12:19:58;23.63;;;12.47;;
20393;SDS011;10356;50.544;9.642;2024-01-15T12:22:25;26.17;;;12.80;;
20393;SDS011;10356;50.544;9.642;2024-01-15T12:24:52;27.70;;;12.07;;
20393;SDS011;10356;50.544;9.642;2024-01-15T12:27:19;25.67;;;12.63;;
20393;SDS011;10356;50.544;9.642;2024-01-15T12:29:46;25.33;;;12.47;;
20393;SDS011;10356;50.544;9.642;2024-01-15T12:32:13;24.53;;;12.73;;
20393;SDS011;10356;50.544;9.642;2024-01-15T12:34:41;28.37;;;13.20;;
20393;SDS011;10356;50.544;9.642;2024-01-15T12:37:09;22.40;;;10.97;;
20393;SDS011;10356;50.544;9.642;2024-01-15T12:39:36;23.43;;;12.53;;
20393;SDS011;10356;50.544;9.642;2024-01-15T12:42:03;23.93;;;12.63;;
20393;SDS011;10356;50.544;9.642;2024-01-15T12:44:30;24.97;;;12.53;;
20393;SDS011;10356;50.544;9.642;2024-01-15T12:46:57;24.23;;;11.70;;
20393;SDS011;10356;50.544;9.642;2024-01-15T12:49:24;25.70;;;11.77;;
20393;SDS011;10356;50.544;9.642;2024-01-15T12:51:56;25.77;;;12.83;;
20393;SDS011;10356;50.544;9.642;2024-01-15T12:54:23;24.63;;;11.47;;
20393;SDS011;10356;50.544;9.642;2024-01-15T12:56:50;25.57;;;12.00;;
20393;SDS011;10356;50.544;9.642;2024-01-15T12:59:17;25.57;;;12.07;;
20393;SDS011;10356;50.544;9.642;2024-01-15T13:01:44;24.70;;;12.80;;
20393;SDS011;10356;50.544;9.642;2024-01-15T13:04:12;22.57;;;11.67;;
20393;SDS011;10356;50.544;9.642;2024-01-15T13:06:47;25.90;;;12.60;;
20393;SDS011;10356;50.544;9.642;2024-01-15T13:09:15;22.40;;;12.07;;
20393;SDS011;10356;50.544;9.642;2024-01-15T13:11:42;23.27;;;12.07;;
20393;SDS011;10356;50.544;9.642;2024-01-15T13:14:09;23.97;;;11.50;;
20393;SDS011;10356;50.544;9.642;2024-01-15T13:16:36;19.30;;;10.70;;
20393;SDS011;10356;50.544;9.642;2024-01-15T13:19:02;21.70;;;11.33;;
20393;SDS011;10356;50.544;9.642;2024-01-15T13:21:29;19.40;;;11.10;;
20393;SDS011;10356;50.544;9.642;2024-01-15T13:23:56;20.67;;;11.27;;
20393;SDS011;10356;50.544;9.642;2024-01-15T13:26:23;19.60;;;10.30;;
20393;SDS011;10356;50.544;9.642;2024-01-15T13:28:50;20.93;;;9.83;;
20393;SDS011;10356;50.544;9.642;2024-01-15T13:31:17;17.60;;;9.80;;
20393;SDS011;10356;50.544;9.642;2024-01-15T13:33:43;20.53;;;9.93;;
20393;SDS011;10356;50.544;9.642;2024-01-15T13:36:09;21.50;;;9.90;;
20393;SDS011;10356;50.544;9.642;2024-01-15T13:38:36;17.87;;;10.33;;
20393;SDS011;10356;50.544;9.642;2024-01-15T13:41:03;20.13;;;10.20;;
20393;SDS011;10356;50.544;9.642;2024-01-15T13:43:31;15.87;;;9.60;;
20393;SDS011;10356;50.544;9.642;2024-01-15T13:45:58;18.47;;;10.20;;
20393;SDS011;10356;50.544;9.642;2024-01-15T13:48:25;18.50;;;11.43;;
20393;SDS011;10356;50.544;9.642;2024-01-15T13:50:51;15.30;;;9.30;;
20393;SDS011;10356;50.544;9.642;2024-01-15T13:53:18;18.10;;;8.40;;
20393;SDS011;10356;50.544;9.642;2024-01-15T13:55:45;16.90;;;7.57;;
20393;SDS011;10356;50.544;9.642;2024-01-15T13:58:12;18.03;;;8.77;;
20393;SDS011;10356;50.544;9.642;2024-01-15T14:00:40;14.03;;;8.07;;
20393;SDS011;10356;50.544;9.642;2024-01-15T14:03:07;15.40;;;7.73;;
20393;SDS011;10356;50.544;9.642;2024-01-15T14:05:33;12.53;;;6.20;;
20393;SDS011;10356;50.544;9.642;2024-01-15T14:08:00;11.10;;;7.30;;
20393;SDS011;10356;50.544;9.642;2024-01-15T14:10:26;13.23;;;6.10;;
20393;SDS011;10356;50.544;9.642;2024-01-15T14:12:53;9.97;;;6.83;;
20393;SDS011;10356;50.544;9.642;2024-01-15T14:15:19;8.70;;;5.30;;
20393;SDS011;10356;50.544;9.642;2024-01-15T14:17:48;8.87;;;4.77;;
20393;SDS011;10356;50.544;9.642;2024-01-15T14:20:16;8.60;;;5.20;;
20393;SDS011;10356;50.544;9.642;2024-01-15T14:22:42;8.07;;;5.00;;
20393;SDS011;10356;50.544;9.642;2024-01-15T14:25:09;10.20;;;4.47;;
20393;SDS011;10356;50.544;9.642;2024-01-15T14:27:35;6.37;;;4.27;;
20393;SDS011;10356;50.544;9.642;2024-01-15T14:30:02;7.23;;;4.37;;
20393;SDS011;10356;50.544;9.642;2024-01-15T14:32:30;6.53;;;3.80;;
20393;SDS011;10356;50.544;9.642;2024-01-15T14:34:58;6.63;;;4.03;;
20393;SDS011;10356;50.544;9.642;2024-01-15T14:37:25;5.97;;;3.50;;
20393;SDS011;10356;50.544;9.642;2024-01-15T14:39:51;5.73;;;3.50;;